createdAt,value
2023-11-30T00:03:13.978Z,57.30
2023-11-30T00:08:16.036Z,57.30
2023-11-30T00:13:18.034Z,57.30
2023-11-30T00:18:20.303Z,57.20
2023-11-30T00:23:22.588Z,57.30
2023-11-30T00:28:24.809Z,57.30
2023-11-30T00:33:27.130Z,57.20
2023-11-30T00:38:29.793Z,57.30
2023-11-30T00:43:31.691Z,57.20
2023-11-30T00:48:33.947Z,57.30
2023-11-30T00:53:36.060Z,57.20
2023-11-30T00:58:38.038Z,57.30
2023-11-30T01:03:40.147Z,57.20
2023-11-30T01:08:42.161Z,57.20
2023-11-30T01:13:45.599Z,57.10
2023-11-30T01:18:47.737Z,57.20
2023-11-30T01:23:49.983Z,57.10
2023-11-30T01:28:52.630Z,57.20
2023-11-30T01:33:54.626Z,57.30
2023-11-30T01:38:56.939Z,57.30
2023-11-30T01:43:58.938Z,57.10
2023-11-30T01:49:01.520Z,57.20
2023-11-30T01:54:04.967Z,57.20
2023-11-30T01:59:08.607Z,57.20
2023-11-30T02:04:16.726Z,57.20
2023-11-30T02:09:19.841Z,57.20
2023-11-30T02:14:22.057Z,57.20
2023-11-30T02:19:24.054Z,57.20
2023-11-30T02:24:26.274Z,57.20
2023-11-30T02:29:29.902Z,57.20
2023-11-30T02:34:31.931Z,57.30
2023-11-30T02:39:34.208Z,57.20
2023-11-30T02:44:36.502Z,57.30
2023-11-30T02:49:38.508Z,57.30
2023-11-30T02:54:40.589Z,57.20
2023-11-30T02:59:44.268Z,57.20
2023-11-30T03:04:46.767Z,57.30
2023-11-30T03:09:48.640Z,57.20
2023-11-30T03:14:50.699Z,57.20
2023-11-30T03:19:52.856Z,57.20
2023-11-30T03:24:55.165Z,57.30
2023-11-30T03:29:59.093Z,57.20
2023-11-30T03:35:01.382Z,57.20
2023-11-30T03:40:04.135Z,57.30
2023-11-30T03:45:08.341Z,57.20
2023-11-30T03:50:13.913Z,57.30
2023-11-30T03:55:16.050Z,57.30
2023-11-30T04:00:18.788Z,57.20
2023-11-30T04:05:21.702Z,57.20
2023-11-30T04:10:23.653Z,57.30
2023-11-30T04:15:25.622Z,57.20
2023-11-30T04:20:29.503Z,57.20
2023-11-30T04:25:31.586Z,57.20
2023-11-30T04:30:33.672Z,57.20
2023-11-30T04:35:36.005Z,57.20
2023-11-30T04:40:37.931Z,57.60
2023-11-30T04:45:40.137Z,57.20
2023-11-30T04:50:42.061Z,57.20
2023-11-30T04:55:44.049Z,57.10
2023-11-30T05:06:24.885Z,57.10
2023-11-30T05:11:27.035Z,57.10
2023-11-30T05:16:29.352Z,57.10
2023-11-30T05:21:31.651Z,57.00
2023-11-30T05:26:33.690Z,57.00
2023-11-30T05:31:35.761Z,57.10
2023-11-30T05:36:37.860Z,57.10
2023-11-30T05:41:40.302Z,57.10
2023-11-30T05:46:42.880Z,57.10
2023-11-30T05:51:45.055Z,57.10
2023-11-30T05:56:47.225Z,57.00
2023-11-30T06:01:49.280Z,57.00
2023-11-30T06:06:51.525Z,57.10
2023-11-30T06:11:53.706Z,56.90
2023-11-30T06:16:56.105Z,56.90
2023-11-30T06:22:08.290Z,57.00
2023-11-30T06:27:10.671Z,56.90
2023-11-30T06:32:12.593Z,57.00
2023-11-30T06:37:17.407Z,57.00
2023-11-30T06:42:19.876Z,56.90
2023-11-30T06:47:22.452Z,56.90
2023-11-30T06:52:24.780Z,57.00
2023-11-30T06:57:29.522Z,56.80
2023-11-30T07:02:31.755Z,56.90
2023-11-30T07:07:37.307Z,56.70
2023-11-30T07:12:40.496Z,56.70
2023-11-30T07:17:42.464Z,56.80
2023-11-30T07:22:45.447Z,56.70
2023-11-30T07:27:47.423Z,56.10
2023-11-30T07:32:49.616Z,57.20
2023-11-30T07:37:51.792Z,56.60
2023-11-30T07:42:53.755Z,56.50
2023-11-30T07:47:58.158Z,56.60
2023-11-30T07:53:05.592Z,55.80
2023-11-30T07:58:07.620Z,56.60
2023-11-30T08:03:12.736Z,56.50
2023-11-30T08:08:14.969Z,56.50
2023-11-30T08:13:17.667Z,57.10
2023-11-30T08:18:25.764Z,56.60
2023-11-30T08:23:28.579Z,56.50
2023-11-30T08:28:31.191Z,56.40
2023-11-30T08:33:33.654Z,56.50
2023-11-30T08:38:39.388Z,56.40
2023-11-30T08:43:41.365Z,56.20
2023-11-30T08:48:44.284Z,56.80
2023-11-30T08:53:48.348Z,56.50
2023-11-30T08:58:50.761Z,56.50
2023-11-30T09:04:01.000Z,55.80
2023-11-30T09:09:03.523Z,55.80
2023-11-30T09:14:07.603Z,56.20
2023-11-30T09:19:09.501Z,56.20
2023-11-30T09:24:12.237Z,56.20
2023-11-30T09:29:15.142Z,56.10
2023-11-30T09:34:17.234Z,56.10
2023-11-30T09:39:21.012Z,56.10
2023-11-30T09:44:23.125Z,56.10
2023-11-30T09:49:25.603Z,56.20
2023-11-30T09:54:27.633Z,56.30
2023-11-30T09:59:30.726Z,56.30
2023-11-30T10:04:32.721Z,56.60
2023-11-30T10:09:37.287Z,56.70
2023-11-30T10:14:39.567Z,57.60
2023-11-30T10:19:42.166Z,56.10
2023-11-30T10:24:44.614Z,57.00
2023-11-30T10:29:49.444Z,55.30
2023-11-30T10:34:58.478Z,56.70
2023-11-30T10:40:10.590Z,56.70
2023-11-30T10:45:15.664Z,56.60
2023-11-30T10:50:21.328Z,56.50
2023-11-30T10:55:25.553Z,56.40
2023-11-30T11:06:09.598Z,56.30
2023-11-30T11:11:15.641Z,56.20
2023-11-30T11:16:18.349Z,55.60
2023-11-30T11:21:27.750Z,56.10
2023-11-30T11:26:43.343Z,56.50
2023-11-30T11:31:45.634Z,55.70
2023-11-30T11:36:49.567Z,55.40
2023-11-30T11:41:52.807Z,56.00
2023-11-30T11:46:54.825Z,56.10
2023-11-30T11:51:57.176Z,56.20
2023-11-30T11:56:59.303Z,56.30
2023-11-30T12:02:03.822Z,56.30
2023-11-30T12:07:18.171Z,56.20
2023-11-30T12:12:20.552Z,55.70
2023-11-30T12:17:22.851Z,56.30
2023-11-30T12:22:24.929Z,56.40
2023-11-30T12:27:26.996Z,56.20
2023-11-30T12:32:29.108Z,56.40
2023-11-30T12:37:32.133Z,56.40
2023-11-30T12:42:34.819Z,56.30
2023-11-30T12:47:36.992Z,56.40
2023-11-30T12:52:40.020Z,56.30
2023-11-30T12:57:45.035Z,56.40
2023-11-30T13:02:50.115Z,56.50
2023-11-30T13:07:54.676Z,56.50
2023-11-30T13:12:57.956Z,56.60
2023-11-30T13:18:00.418Z,56.60
2023-11-30T13:23:02.990Z,56.60
2023-11-30T13:28:05.262Z,56.50
2023-11-30T13:33:07.343Z,56.60
2023-11-30T13:38:11.992Z,56.60
2023-11-30T13:43:14.412Z,56.20
2023-11-30T13:48:17.809Z,56.70
2023-11-30T13:53:20.865Z,56.60
2023-11-30T13:58:23.627Z,56.70
2023-11-30T14:03:25.985Z,56.60
2023-11-30T14:08:29.938Z,56.10
2023-11-30T14:13:32.091Z,56.70
2023-11-30T14:18:34.490Z,56.80
2023-11-30T14:23:36.898Z,56.80
2023-11-30T14:28:39.970Z,56.80
2023-11-30T14:33:42.956Z,56.80
2023-11-30T14:38:45.760Z,58.50
2023-11-30T14:43:48.021Z,58.90
2023-11-30T14:48:51.206Z,58.70
2023-11-30T14:53:53.296Z,58.40
2023-11-30T14:58:55.687Z,57.90
2023-11-30T15:03:58.034Z,58.00
2023-11-30T15:09:00.021Z,57.90
2023-11-30T15:14:02.228Z,57.80
2023-11-30T15:19:05.298Z,57.00
2023-11-30T15:24:07.891Z,58.00
2023-11-30T15:29:09.818Z,58.30
2023-11-30T15:34:12.049Z,58.80
2023-11-30T15:39:17.577Z,58.60
2023-11-30T15:44:20.268Z,59.10
2023-11-30T15:49:22.294Z,58.90
2023-11-30T15:54:24.303Z,58.80
2023-11-30T15:59:27.041Z,58.70
2023-11-30T16:04:32.103Z,58.70
2023-11-30T16:09:35.495Z,58.60
2023-11-30T16:14:37.496Z,58.50
2023-11-30T16:19:39.978Z,58.40
2023-11-30T16:24:42.538Z,58.20
2023-11-30T16:29:45.639Z,57.80
2023-11-30T16:34:47.978Z,58.40
2023-11-30T16:39:53.877Z,58.20
2023-11-30T16:44:56.766Z,58.30
2023-11-30T16:49:58.994Z,58.10
2023-11-30T16:55:01.553Z,58.30
2023-11-30T17:00:05.404Z,57.90
2023-11-30T17:05:08.437Z,58.40
2023-11-30T17:10:11.616Z,58.60
2023-11-30T17:15:14.717Z,58.70
2023-11-30T17:20:16.929Z,58.70
2023-11-30T17:25:21.287Z,58.10
2023-11-30T17:30:25.166Z,58.80
2023-11-30T17:35:27.994Z,58.70
2023-11-30T17:40:30.443Z,58.70
2023-11-30T17:45:32.724Z,58.70
2023-11-30T17:50:35.029Z,58.70
2023-11-30T17:55:37.952Z,58.60
2023-11-30T18:00:40.137Z,58.00
2023-11-30T18:05:42.584Z,58.60
2023-11-30T18:10:44.757Z,58.00
2023-11-30T18:15:50.961Z,58.60
2023-11-30T18:20:53.378Z,58.60
2023-11-30T18:25:55.526Z,58.50
2023-11-30T18:36:24.672Z,58.50
2023-11-30T18:41:26.799Z,57.70
2023-11-30T18:46:29.346Z,57.70
2023-11-30T18:51:32.894Z,57.60
2023-11-30T18:56:35.365Z,57.70
2023-11-30T19:01:37.529Z,57.80
2023-11-30T19:06:39.929Z,57.80
2023-11-30T19:11:45.666Z,57.80
2023-11-30T19:16:48.544Z,57.90
2023-11-30T19:21:50.751Z,58.00
2023-11-30T19:26:52.916Z,58.00
2023-11-30T19:31:55.214Z,58.00
2023-11-30T19:36:58.641Z,58.00
2023-11-30T19:42:01.628Z,58.10
2023-11-30T19:47:05.382Z,58.20
2023-11-30T19:52:08.104Z,58.20
2023-11-30T19:57:10.565Z,58.20
2023-11-30T20:02:12.953Z,58.20
2023-11-30T20:07:19.902Z,58.30
2023-11-30T20:12:22.641Z,58.20
2023-11-30T20:17:25.521Z,58.20
2023-11-30T20:22:27.968Z,58.40
2023-11-30T20:27:31.201Z,58.40
2023-11-30T20:32:33.210Z,58.40
2023-11-30T20:37:36.931Z,59.10
2023-11-30T20:42:39.017Z,58.40
2023-11-30T20:47:41.361Z,58.40
2023-11-30T20:52:43.435Z,58.50
2023-11-30T20:57:47.170Z,58.50
2023-11-30T21:02:49.339Z,58.60
2023-11-30T21:07:51.659Z,58.50
2023-11-30T21:12:53.945Z,58.60
2023-11-30T21:17:57.096Z,58.60
2023-11-30T21:22:59.237Z,58.60
2023-11-30T21:28:01.754Z,58.70
2023-11-30T21:33:04.435Z,58.70
2023-11-30T21:38:07.071Z,58.70
2023-11-30T21:43:09.236Z,58.60
2023-11-30T21:48:12.663Z,59.40
2023-11-30T21:53:14.857Z,58.80
2023-11-30T21:58:17.109Z,58.80
2023-11-30T22:03:21.698Z,58.80
2023-11-30T22:08:25.246Z,58.80
2023-11-30T22:13:29.667Z,58.80
2023-11-30T22:18:32.845Z,58.80
2023-11-30T22:23:35.295Z,58.80
2023-11-30T22:28:37.332Z,58.70
2023-11-30T22:33:39.507Z,58.80
2023-11-30T22:38:46.327Z,58.80
2023-11-30T22:43:52.384Z,58.80
2023-11-30T22:48:54.849Z,58.80
2023-11-30T22:54:02.886Z,58.90
2023-11-30T22:59:04.887Z,58.80
2023-11-30T23:04:07.418Z,58.80
2023-11-30T23:09:09.968Z,58.80
2023-11-30T23:14:13.232Z,58.80
2023-11-30T23:19:15.229Z,58.80
2023-11-30T23:24:25.734Z,58.80
2023-11-30T23:29:31.150Z,58.80
2023-11-30T23:34:33.261Z,58.80
2023-11-30T23:39:36.571Z,58.80
2023-11-30T23:44:39.329Z,58.90
2023-11-30T23:49:41.801Z,58.80
2023-11-30T23:54:44.034Z,58.80
2023-11-30T23:59:46.512Z,58.90
